Time;durP1;ratioP1;P1;durP2;ratioP2;P2;SDS_P1;SDS_P2;PMS_P1;PMS_P2;Temp;Humidity;BMP_temperature;BMP_pressure;BME280_temperature;BME280_humidity;BME280_pressure;Samples;Min_cycle;Max_cycle;Signal;HPM_P1;HPM_P2
2022/01/07 00:00:39;;;;;;;8.63;3.33;;;3.10;99.90;;;;;;5017286;28;20203;-79
2022/01/07 00:03:05;;;;;;;5.33;2.93;;;3.10;99.90;;;;;;5017779;28;20529;-79
2022/01/07 00:05:31;;;;;;;10.93;3.57;;;3.10;99.90;;;;;;5018100;28;20173;-79
2022/01/07 00:07:57;;;;;;;9.53;2.90;;;3.00;99.90;;;;;;5018244;28;20177;-79
2022/01/07 00:10:23;;;;;;;9.27;3.20;;;3.00;99.90;;;;;;5016639;28;20211;-79
2022/01/07 00:12:50;;;;;;;11.00;3.50;;;3.00;99.90;;;;;;5018297;28;20230;-79
2022/01/07 00:15:16;;;;;;;9.80;3.37;;;3.00;99.90;;;;;;5016663;28;20177;-79
2022/01/07 00:17:45;;;;;;;14.13;3.57;;;3.10;99.90;;;;;;5016402;28;20655;-79
2022/01/07 00:20:13;;;;;;;9.53;3.50;;;3.00;99.90;;;;;;5016453;28;20351;-80
2022/01/07 00:22:40;;;;;;;13.47;3.47;;;3.10;99.90;;;;;;5016964;28;20181;-79
2022/01/07 00:25:07;;;;;;;12.47;3.83;;;3.10;99.90;;;;;;5018311;28;20189;-79
2022/01/07 00:27:33;;;;;;;11.03;4.07;;;3.10;99.90;;;;;;5017148;28;20585;-79
2022/01/07 00:29:59;;;;;;;7.43;3.50;;;3.10;99.90;;;;;;5018626;28;20188;-79
2022/01/07 00:32:24;;;;;;;8.90;3.87;;;3.10;99.90;;;;;;5017223;28;20193;-80
2022/01/07 00:34:50;;;;;;;13.37;3.57;;;3.10;99.90;;;;;;5018722;28;20184;-79
2022/01/07 00:37:16;;;;;;;9.40;3.70;;;3.10;99.90;;;;;;5018260;28;20173;-79
2022/01/07 00:39:42;;;;;;;11.47;4.07;;;3.10;99.90;;;;;;5017914;28;20209;-79
2022/01/07 00:42:08;;;;;;;8.93;3.70;;;3.10;99.90;;;;;;5016991;28;20196;-79
2022/01/07 00:44:34;;;;;;;9.33;4.43;;;3.10;99.90;;;;;;5018415;28;20173;-79
2022/01/07 00:47:00;;;;;;;11.57;4.33;;;3.10;99.90;;;;;;5018418;28;20169;-79
2022/01/07 00:49:25;;;;;;;12.77;4.50;;;3.20;99.90;;;;;;5017931;28;20183;-79
2022/01/07 00:51:51;;;;;;;10.93;3.87;;;3.20;99.90;;;;;;5018274;28;20193;-79
2022/01/07 00:54:18;;;;;;;10.13;3.73;;;3.20;99.90;;;;;;5018242;28;20177;-79
2022/01/07 00:56:44;;;;;;;9.83;3.60;;;3.20;99.90;;;;;;5016906;28;20181;-79
2022/01/07 00:59:10;;;;;;;8.10;3.60;;;3.20;99.90;;;;;;5018727;28;20197;-80
2022/01/07 01:01:36;;;;;;;9.57;3.70;;;3.20;99.90;;;;;;5016979;28;20736;-79
2022/01/07 01:04:03;;;;;;;7.07;4.03;;;3.30;99.90;;;;;;5019182;28;20177;-79
2022/01/07 01:06:28;;;;;;;10.63;4.17;;;3.20;99.90;;;;;;5018492;28;20251;-79
2022/01/07 01:08:54;;;;;;;9.73;3.73;;;3.30;99.90;;;;;;5018879;28;20180;-79
2022/01/07 01:11:20;;;;;;;7.60;3.60;;;3.30;99.90;;;;;;5018198;28;20196;-79
2022/01/07 01:13:45;;;;;;;14.97;4.80;;;3.30;99.90;;;;;;5018345;28;20179;-79
2022/01/07 01:16:11;;;;;;;7.73;4.17;;;3.40;99.90;;;;;;5017249;28;20271;-79
2022/01/07 01:18:36;;;;;;;14.00;3.87;;;3.30;99.90;;;;;;5016737;28;20255;-80
2022/01/07 01:21:02;;;;;;;11.53;3.93;;;3.30;99.90;;;;;;5018177;28;20209;-79
2022/01/07 01:23:28;;;;;;;12.03;4.17;;;3.30;99.90;;;;;;5016799;28;20376;-79
2022/01/07 01:25:53;;;;;;;14.10;3.83;;;3.40;99.90;;;;;;5017132;28;20200;-79
2022/01/07 01:28:19;;;;;;;9.00;3.63;;;3.40;99.90;;;;;;5018079;28;20180;-79
2022/01/07 01:30:45;;;;;;;13.60;4.40;;;3.40;99.90;;;;;;5017107;28;20196;-79
2022/01/07 01:33:12;;;;;;;8.17;4.80;;;3.40;99.90;;;;;;5021105;28;20173;-79
2022/01/07 01:35:39;;;;;;;14.83;4.77;;;3.40;99.90;;;;;;5021597;28;20176;-79
2022/01/07 01:38:04;;;;;;;12.30;4.60;;;3.40;99.90;;;;;;5021377;28;20165;-79
2022/01/07 01:40:30;;;;;;;10.63;4.47;;;3.40;99.90;;;;;;5021272;28;20216;-79
2022/01/07 01:42:57;;;;;;;11.50;4.60;;;3.40;99.90;;;;;;5019959;28;20173;-79
2022/01/07 01:45:24;;;;;;;13.30;4.60;;;3.40;99.90;;;;;;5020955;28;20164;-79
2022/01/07 01:47:54;;;;;;;11.53;4.30;;;3.40;99.90;;;;;;5019831;28;20260;-80
2022/01/07 01:50:20;;;;;;;9.30;4.00;;;3.50;99.90;;;;;;5019798;28;20177;-79
2022/01/07 01:52:56;;;;;;;11.30;3.80;;;3.40;99.90;;;;;;5020577;28;20169;-79
2022/01/07 01:55:24;;;;;;;10.47;4.00;;;3.50;99.90;;;;;;5018499;28;20173;-79
2022/01/07 01:57:52;;;;;;;9.83;4.27;;;3.40;99.90;;;;;;5018636;28;20181;-80
2022/01/07 02:00:20;;;;;;;9.80;4.17;;;3.50;99.90;;;;;;5019252;28;20189;-80
2022/01/07 02:02:46;;;;;;;8.97;4.07;;;3.50;99.90;;;;;;5027851;28;20224;-80
2022/01/07 02:05:12;;;;;;;10.73;4.13;;;3.50;99.90;;;;;;5027908;28;20181;-80
2022/01/07 02:07:39;;;;;;;14.97;4.53;;;3.50;99.90;;;;;;5017783;28;20191;-80
2022/01/07 02:10:08;;;;;;;9.63;3.73;;;3.50;99.90;;;;;;5030995;23;20276;-94
2022/01/07 02:12:33;;;;;;;8.93;3.60;;;3.50;99.90;;;;;;5039998;28;20145;-95
2022/01/07 02:14:59;;;;;;;7.43;4.30;;;3.50;99.90;;;;;;5040415;28;20161;-94
2022/01/07 02:17:27;;;;;;;8.00;4.13;;;3.60;99.90;;;;;;5039909;28;20133;-95
2022/01/07 08:23:54;;;;;;;5.50;3.30;;;3.40;99.90;;;;;;5062142;28;20216;-95
2022/01/07 08:26:21;;;;;;;9.33;3.50;;;3.50;99.90;;;;;;5014581;28;20217;-77
2022/01/07 08:28:54;;;;;;;4.40;2.90;;;3.50;99.90;;;;;;5015469;28;20541;-77
2022/01/07 08:36:42;;;;;;;4.20;2.60;;;3.70;99.90;;;;;;4996154;28;20221;-77
2022/01/07 08:39:10;;;;;;;6.70;3.30;;;3.70;99.90;;;;;;4995534;28;20214;-76
2022/01/07 08:41:37;;;;;;;5.30;3.07;;;3.70;99.90;;;;;;4994535;28;20189;-77
2022/01/07 08:44:04;;;;;;;4.43;3.57;;;3.70;99.90;;;;;;4994774;28;20212;-77
2022/01/07 08:46:29;;;;;;;9.33;3.57;;;3.70;99.90;;;;;;4998499;28;20213;-78
2022/01/07 08:48:59;;;;;;;4.60;2.97;;;3.80;99.90;;;;;;5002827;28;20181;-78
2022/01/07 08:51:26;;;;;;;4.73;3.23;;;3.80;99.90;;;;;;4997756;28;20178;-78
2022/01/07 08:53:52;;;;;;;5.57;3.20;;;3.80;99.90;;;;;;4995443;28;20236;-77
2022/01/07 08:56:18;;;;;;;5.13;3.03;;;3.90;99.90;;;;;;4996542;28;20735;-77
2022/01/07 08:58:44;;;;;;;3.97;2.93;;;3.90;99.90;;;;;;4996479;28;20185;-78
2022/01/07 09:01:09;;;;;;;4.43;2.87;;;3.90;99.90;;;;;;4996603;28;20225;-77
2022/01/07 09:03:35;;;;;;;5.47;2.93;;;3.90;99.90;;;;;;4996618;28;20177;-77
2022/01/07 09:06:01;;;;;;;2.97;2.60;;;3.90;99.90;;;;;;4996633;28;20177;-77
2022/01/07 09:08:26;;;;;;;4.63;2.50;;;4.00;99.90;;;;;;4996116;28;20236;-77
2022/01/07 09:10:52;;;;;;;4.60;3.00;;;4.00;99.90;;;;;;4995402;28;20551;-77
2022/01/07 09:13:20;;;;;;;5.70;3.10;;;4.00;99.90;;;;;;4996391;28;20688;-78
2022/01/07 09:15:46;;;;;;;5.43;2.93;;;4.00;99.90;;;;;;4995999;28;20189;-77
2022/01/07 09:18:12;;;;;;;6.43;2.93;;;4.10;99.90;;;;;;4994861;28;20190;-77
2022/01/07 09:20:41;;;;;;;4.13;2.93;;;4.00;99.90;;;;;;4979417;28;20221;-77
2022/01/07 09:23:08;;;;;;;5.57;2.63;;;4.00;99.90;;;;;;4996864;28;20223;-77
2022/01/07 09:25:34;;;;;;;4.20;2.60;;;4.10;99.90;;;;;;4996857;28;20574;-77
2022/01/07 09:28:00;;;;;;;4.37;2.47;;;4.10;99.90;;;;;;4995248;28;20193;-77
2022/01/07 09:30:26;;;;;;;3.50;2.47;;;4.10;99.90;;;;;;4995520;28;20198;-77
2022/01/07 09:32:52;;;;;;;5.40;2.53;;;4.10;99.90;;;;;;4995297;28;20189;-77
2022/01/07 09:35:17;;;;;;;5.60;3.10;;;4.10;99.90;;;;;;4995081;28;20656;-77
2022/01/07 09:37:43;;;;;;;4.87;2.47;;;4.10;99.90;;;;;;4977805;28;20194;-78
2022/01/07 09:40:10;;;;;;;4.27;1.97;;;4.20;99.90;;;;;;4995117;28;20272;-76
2022/01/07 09:42:36;;;;;;;3.50;2.00;;;4.20;99.90;;;;;;4994984;28;20185;-77
2022/01/07 09:45:02;;;;;;;4.13;1.87;;;4.20;99.90;;;;;;4993318;28;20232;-76
2022/01/07 09:47:28;;;;;;;3.80;1.73;;;4.20;99.90;;;;;;4994446;28;20296;-76
2022/01/07 09:49:54;;;;;;;2.53;2.00;;;4.20;99.90;;;;;;4994438;28;20683;-76
2022/01/07 09:52:19;;;;;;;2.27;1.90;;;4.20;99.90;;;;;;4993150;28;20192;-77
2022/01/07 09:54:47;;;;;;;3.80;2.00;;;4.20;99.90;;;;;;4994372;28;20552;-76
2022/01/07 09:57:13;;;;;;;2.70;2.03;;;4.30;99.90;;;;;;4993962;28;20594;-77
2022/01/07 09:59:39;;;;;;;2.20;1.90;;;4.30;99.90;;;;;;4994180;28;20296;-76
2022/01/07 10:02:09;;;;;;;2.77;2.17;;;4.30;99.90;;;;;;4994132;28;20173;-76
2022/01/07 10:04:40;;;;;;;2.30;1.90;;;4.30;99.90;;;;;;4994141;28;20188;-76
2022/01/07 10:07:20;;;;;;;2.63;1.90;;;4.40;99.90;;;;;;4976704;28;20551;-76
2022/01/07 10:10:03;;;;;;;1.73;1.50;;;4.40;99.90;;;;;;4993980;28;20205;-76
2022/01/07 10:12:47;;;;;;;2.10;1.60;;;4.40;99.90;;;;;;4993449;28;20189;-77
2022/01/07 10:15:15;;;;;;;4.03;2.00;;;4.40;99.90;;;;;;4993973;28;20738;-76
2022/01/07 10:17:42;;;;;;;2.10;1.80;;;4.50;99.90;;;;;;4994321;28;20551;-76
2022/01/07 10:20:08;;;;;;;5.73;1.53;;;4.50;99.90;;;;;;4993803;28;20644;-76
2022/01/07 10:22:55;;;;;;;2.20;1.57;;;4.50;99.90;;;;;;4993550;28;20196;-77
2022/01/07 10:25:29;;;;;;;3.37;1.77;;;4.50;99.90;;;;;;4993739;28;20667;-78
2022/01/07 10:28:07;;;;;;;2.30;1.80;;;4.50;99.90;;;;;;4997350;28;20237;-78
2022/01/07 10:30:34;;;;;;;4.13;2.10;;;4.50;99.90;;;;;;4998631;28;20271;-78
2022/01/07 10:33:00;;;;;;;3.50;2.03;;;4.50;99.90;;;;;;4998199;28;20786;-78
2022/01/07 10:35:27;;;;;;;1.83;1.57;;;4.50;99.90;;;;;;4998771;28;20182;-78
2022/01/07 10:37:54;;;;;;;2.20;1.70;;;4.60;99.90;;;;;;4998896;28;20177;-78
2022/01/07 10:40:23;;;;;;;3.30;1.50;;;4.60;99.90;;;;;;4996752;28;20224;-79
2022/01/07 10:42:50;;;;;;;2.07;1.87;;;4.60;99.90;;;;;;5000057;28;20666;-79
2022/01/07 10:45:16;;;;;;;2.93;1.93;;;4.60;99.90;;;;;;4998327;28;20208;-78
2022/01/07 10:47:42;;;;;;;2.47;1.83;;;4.60;99.90;;;;;;4993759;28;20178;-76
2022/01/07 10:50:23;;;;;;;2.40;1.83;;;4.70;99.90;;;;;;4993653;28;20217;-76
2022/01/07 10:52:49;;;;;;;3.30;1.70;;;4.70;99.90;;;;;;4992213;28;20272;-77
2022/01/07 10:55:18;;;;;;;2.27;1.70;;;4.70;99.90;;;;;;4993759;28;20578;-77
2022/01/07 10:57:46;;;;;;;12.83;2.50;;;4.70;99.90;;;;;;4992387;28;20192;-77
2022/01/07 11:00:15;;;;;;;6.83;1.97;;;4.80;99.90;;;;;;4998370;28;20264;-79
2022/01/07 11:02:41;;;;;;;6.27;2.00;;;4.80;99.90;;;;;;5000956;28;20656;-79
2022/01/07 11:05:08;;;;;;;3.90;1.97;;;4.80;99.90;;;;;;4983213;28;20284;-79
2022/01/07 11:07:35;;;;;;;6.63;2.53;;;4.80;99.90;;;;;;4999041;28;20193;-80
2022/01/07 11:10:04;;;;;;;4.10;1.67;;;4.90;99.90;;;;;;4983909;28;20209;-78
2022/01/07 11:12:31;;;;;;;2.17;1.90;;;4.90;99.90;;;;;;4986677;28;20193;-79
2022/01/07 11:14:58;;;;;;;3.70;2.30;;;4.90;99.90;;;;;;4988152;28;20193;-80
2022/01/07 11:17:24;;;;;;;4.83;1.83;;;5.00;99.90;;;;;;4988904;28;20560;-80
2022/01/07 11:19:59;;;;;;;5.17;1.63;;;5.00;99.90;;;;;;5005946;28;20292;-80
2022/01/07 11:22:25;;;;;;;3.37;2.07;;;5.00;99.90;;;;;;4983620;28;20268;-79
2022/01/07 11:25:07;;;;;;;11.17;2.53;;;5.00;99.90;;;;;;5001729;28;20185;-79
2022/01/07 11:27:46;;;;;;;8.43;2.40;;;5.10;99.90;;;;;;4984338;28;20181;-79
2022/01/07 11:30:15;;;;;;;7.87;2.20;;;5.10;99.90;;;;;;5003793;28;20691;-80
2022/01/07 11:32:44;;;;;;;9.27;2.13;;;5.10;99.90;;;;;;5005242;28;20274;-80
2022/01/07 11:35:19;;;;;;;3.33;1.80;;;5.10;99.90;;;;;;5004688;28;20260;-80
2022/01/07 11:37:53;;;;;;;4.27;1.83;;;5.20;99.90;;;;;;4988426;28;20192;-80
2022/01/07 11:43:04;;;;;;;2.67;1.73;;;5.20;99.90;;;;;;5007437;28;20181;-78
2022/01/07 11:45:30;;;;;;;3.47;1.67;;;5.20;99.90;;;;;;5006020;28;20150;-79
2022/01/07 11:48:10;;;;;;;3.37;1.90;;;5.30;99.90;;;;;;4982069;28;20189;-77
2022/01/07 11:50:48;;;;;;;9.40;2.33;;;5.20;99.90;;;;;;5000441;28;20202;-78
2022/01/07 11:53:14;;;;;;;7.13;1.97;;;5.20;99.90;;;;;;4985684;28;20189;-79
2022/01/07 11:55:41;;;;;;;3.90;2.13;;;5.20;99.90;;;;;;4986947;28;20679;-79
2022/01/07 11:58:09;;;;;;;9.17;2.53;;;5.20;99.90;;;;;;4987625;28;20182;-78
2022/01/07 12:00:56;;;;;;;7.83;2.23;;;5.20;99.90;;;;;;5002734;28;20216;-78
2022/01/07 12:03:45;;;;;;;5.47;2.10;;;5.30;99.90;;;;;;4997098;28;20213;-76
2022/01/07 12:06:23;;;;;;;3.50;1.70;;;5.20;99.90;;;;;;4979153;28;20182;-76
2022/01/07 12:09:09;;;;;;;6.53;1.97;;;5.20;99.90;;;;;;4996182;28;20660;-77
2022/01/07 12:11:44;;;;;;;5.13;1.70;;;5.30;99.90;;;;;;4996335;28;20174;-75
2022/01/07 12:14:18;;;;;;;4.23;2.10;;;5.30;99.90;;;;;;4979196;28;20260;-75
2022/01/07 12:16:49;;;;;;;4.17;1.87;;;5.40;99.90;;;;;;4996185;28;20169;-75
2022/01/07 12:19:18;;;;;;;7.33;2.27;;;5.40;99.90;;;;;;4994861;28;20268;-76
2022/01/07 12:22:06;;;;;;;7.27;2.00;;;5.40;99.90;;;;;;4978578;28;20204;-77
2022/01/07 12:24:32;;;;;;;3.37;1.87;;;5.40;99.90;;;;;;4994778;28;20244;-76
2022/01/07 12:27:04;;;;;;;5.17;2.70;;;5.50;99.90;;;;;;4996166;28;20174;-76
2022/01/07 12:29:32;;;;;;;3.73;2.17;;;5.50;99.90;;;;;;4996407;28;20263;-77
2022/01/07 12:31:58;;;;;;;5.80;2.17;;;5.50;99.90;;;;;;4996484;28;20189;-76
2022/01/07 12:34:32;;;;;;;4.67;2.20;;;5.60;99.90;;;;;;4995464;28;20323;-76
2022/01/07 12:37:00;;;;;;;6.03;2.60;;;5.60;99.90;;;;;;4978970;28;20320;-76
2022/01/07 12:39:29;;;;;;;5.57;2.10;;;5.60;99.90;;;;;;4994872;28;20228;-76
2022/01/07 12:41:55;;;;;;;5.17;2.50;;;5.60;99.90;;;;;;4995453;28;20217;-78
2022/01/07 12:44:22;;;;;;;4.23;2.13;;;5.60;99.90;;;;;;4995975;28;20194;-76
2022/01/07 12:46:55;;;;;;;5.80;2.43;;;5.60;99.90;;;;;;4996454;28;20174;-76
2022/01/07 12:49:32;;;;;;;6.77;2.50;;;5.60;99.90;;;;;;4995187;28;20205;-75
2022/01/07 12:52:03;;;;;;;10.93;2.53;;;5.60;99.90;;;;;;4994735;28;20189;-76
2022/01/07 12:54:29;;;;;;;7.63;2.43;;;5.60;99.90;;;;;;4994770;28;20193;-76
2022/01/07 12:56:54;;;;;;;7.47;2.20;;;5.60;99.90;;;;;;4994735;28;20236;-76
2022/01/07 12:59:24;;;;;;;6.00;2.50;;;5.60;99.90;;;;;;4996314;28;20631;-76
2022/01/07 13:01:49;;;;;;;6.33;2.30;;;5.60;99.90;;;;;;4995692;28;20182;-77
2022/01/07 13:04:17;;;;;;;8.30;2.90;;;5.70;99.90;;;;;;4996389;28;20174;-76
2022/01/07 13:06:54;;;;;;;3.10;2.20;;;5.70;99.90;;;;;;4978331;28;20595;-75
2022/01/07 13:09:23;;;;;;;7.50;2.73;;;5.70;99.90;;;;;;4995575;28;20205;-75
2022/01/07 13:11:52;;;;;;;6.70;2.47;;;5.80;99.90;;;;;;4996439;28;20190;-75
2022/01/07 13:14:20;;;;;;;5.70;2.37;;;5.80;99.90;;;;;;4995742;28;20177;-76
2022/01/07 13:16:49;;;;;;;4.80;2.87;;;5.80;99.90;;;;;;4995589;28;20637;-76
2022/01/07 13:19:15;;;;;;;9.07;2.93;;;5.80;99.90;;;;;;4995646;28;20213;-76
2022/01/07 13:21:46;;;;;;;11.30;3.00;;;5.80;99.90;;;;;;4993741;28;20190;-75
2022/01/07 13:24:17;;;;;;;7.17;2.50;;;5.80;99.90;;;;;;4977768;28;20193;-77
2022/01/07 13:26:45;;;;;;;4.83;3.00;;;5.80;99.90;;;;;;4999120;28;20182;-76
2022/01/07 13:29:21;;;;;;;8.03;2.93;;;5.80;99.90;;;;;;5009658;28;20201;-76
2022/01/07 13:31:48;;;;;;;5.50;2.80;;;5.80;99.90;;;;;;4998341;28;20185;-74
2022/01/07 13:34:25;;;;;;;4.67;2.63;;;5.80;99.90;;;;;;5007527;28;20184;-76
2022/01/07 13:36:52;;;;;;;9.70;2.93;;;5.80;99.90;;;;;;5009077;28;20256;-76
2022/01/07 13:39:20;;;;;;;10.30;3.03;;;5.80;99.90;;;;;;5008802;28;20216;-77
2022/01/07 13:41:52;;;;;;;6.20;2.53;;;5.80;99.90;;;;;;4997801;28;20178;-77
2022/01/07 13:44:18;;;;;;;6.27;3.10;;;5.80;99.90;;;;;;4977302;28;20177;-77
2022/01/07 13:46:50;;;;;;;7.23;2.77;;;5.80;99.90;;;;;;4995281;28;20186;-76
2022/01/07 13:49:16;;;;;;;10.43;2.83;;;5.80;99.90;;;;;;4995383;28;20704;-79
2022/01/07 13:51:51;;;;;;;5.60;2.30;;;5.80;99.90;;;;;;4995522;28;20604;-78
2022/01/07 13:54:20;;;;;;;4.43;2.63;;;5.80;99.90;;;;;;4994900;28;20193;-78
2022/01/07 13:56:54;;;;;;;5.10;2.30;;;5.70;99.90;;;;;;4994213;28;20186;-76
2022/01/07 13:59:20;;;;;;;4.57;2.13;;;5.60;99.90;;;;;;4994208;28;20602;-76
2022/01/07 14:02:22;;;;;;;6.30;2.43;;;5.60;99.90;;;;;;4993948;28;20178;-75
2022/01/07 14:04:52;;;;;;;6.23;1.90;;;5.60;99.90;;;;;;4994356;28;20176;-76
2022/01/07 14:07:40;;;;;;;2.40;1.30;;;5.40;99.90;;;;;;4976796;28;20181;-76
2022/01/07 14:10:25;;;;;;;2.43;1.20;;;5.40;99.90;;;;;;4994659;28;20193;-75
2022/01/07 14:13:17;;;;;;;2.77;1.07;;;5.30;99.90;;;;;;4993908;28;20228;-76
2022/01/07 14:15:46;;;;;;;1.43;1.00;;;5.20;99.90;;;;;;4974869;28;20614;-75
2022/01/07 14:18:20;;;;;;;2.93;0.90;;;5.20;99.90;;;;;;4993931;28;20685;-75
2022/01/07 14:20:50;;;;;;;3.77;1.17;;;5.10;99.90;;;;;;4994149;28;20763;-76
2022/01/07 14:23:21;;;;;;;2.80;0.93;;;5.00;99.90;;;;;;4994084;28;20177;-76
2022/01/07 14:25:49;;;;;;;2.30;1.17;;;5.00;99.90;;;;;;5061777;22;20236;-76
2022/01/07 14:28:18;;;;;;;2.83;0.87;;;4.90;99.90;;;;;;5035455;28;20270;-76
2022/01/07 14:30:44;;;;;;;2.73;0.80;;;4.90;99.90;;;;;;5056646;28;20237;-79
2022/01/07 14:33:10;;;;;;;2.27;0.77;;;4.90;99.90;;;;;;5057043;28;20195;-78
2022/01/07 14:35:36;;;;;;;4.97;1.13;;;4.80;99.90;;;;;;5059108;28;20199;-79
2022/01/07 14:38:04;;;;;;;1.87;0.70;;;4.70;99.90;;;;;;5059998;28;20186;-79
2022/01/07 14:40:30;;;;;;;3.00;0.70;;;4.70;99.90;;;;;;5061611;28;20211;-80
2022/01/07 14:42:56;;;;;;;3.80;0.87;;;4.70;99.90;;;;;;5060306;28;20188;-81
2022/01/07 14:45:22;;;;;;;1.87;1.07;;;4.70;99.90;;;;;;5068499;28;20209;-80
2022/01/07 14:47:48;;;;;;;2.97;1.00;;;4.70;99.90;;;;;;5059794;28;20167;-79
2022/01/07 14:50:15;;;;;;;6.67;0.83;;;4.60;99.90;;;;;;5055174;28;20205;-77
2022/01/07 14:52:41;;;;;;;2.07;0.70;;;4.60;99.90;;;;;;5036196;28;20214;-79
2022/01/07 14:55:07;;;;;;;4.47;0.73;;;4.60;99.90;;;;;;5035579;28;20199;-76
2022/01/07 14:57:33;;;;;;;7.17;1.07;;;4.60;99.90;;;;;;5052968;28;20187;-76
2022/01/07 14:59:59;;;;;;;5.10;1.00;;;4.60;99.90;;;;;;5052943;28;20688;-78
2022/01/07 15:02:25;;;;;;;4.33;0.90;;;4.60;99.90;;;;;;5053463;28;20653;-78
2022/01/07 15:04:50;;;;;;;3.20;1.00;;;4.50;99.90;;;;;;5053277;28;20188;-77
2022/01/07 15:07:16;;;;;;;1.80;0.70;;;4.50;99.90;;;;;;5053300;28;20202;-77
2022/01/07 15:09:42;;;;;;;5.80;0.90;;;4.50;99.90;;;;;;5052871;28;20183;-77
2022/01/07 15:12:09;;;;;;;3.53;0.90;;;4.50;99.90;;;;;;5055489;28;20264;-78
2022/01/07 15:14:35;;;;;;;2.80;1.07;;;4.50;99.90;;;;;;5057897;28;20199;-79
2022/01/07 15:17:01;;;;;;;3.07;1.47;;;4.50;99.90;;;;;;5059603;28;20180;-79
2022/01/07 15:19:32;;;;;;;3.50;1.40;;;4.50;99.90;;;;;;5058752;28;20200;-79
2022/01/07 15:22:05;;;;;;;3.30;1.00;;;4.40;99.90;;;;;;5039827;28;20168;-78
2022/01/07 15:24:31;;;;;;;4.03;1.70;;;4.50;99.90;;;;;;5057401;28;20291;-79
2022/01/07 15:26:59;;;;;;;5.07;1.30;;;4.50;99.90;;;;;;5057091;28;20218;-78
2022/01/07 15:29:25;;;;;;;5.00;1.33;;;4.50;99.90;;;;;;5056582;28;20552;-78
2022/01/07 15:31:51;;;;;;;4.60;1.27;;;4.40;99.90;;;;;;5056908;28;20305;-78
2022/01/07 15:34:17;;;;;;;5.00;1.83;;;4.40;99.90;;;;;;5056444;28;20178;-78
2022/01/07 15:36:43;;;;;;;5.90;1.60;;;4.30;99.90;;;;;;5056493;28;20175;-78
2022/01/07 15:39:11;;;;;;;2.93;1.17;;;4.30;99.90;;;;;;5056559;28;20214;-78
2022/01/07 15:41:37;;;;;;;4.53;2.03;;;4.30;99.90;;;;;;5038815;28;20180;-78
2022/01/07 15:44:03;;;;;;;5.33;2.03;;;4.30;99.90;;;;;;5056161;28;20720;-78
2022/01/07 15:46:29;;;;;;;2.03;1.40;;;4.30;99.90;;;;;;5038257;28;20237;-78
2022/01/07 15:48:55;;;;;;;2.57;1.47;;;4.30;99.90;;;;;;5056483;28;20168;-76
2022/01/07 15:51:21;;;;;;;4.23;1.80;;;4.20;99.90;;;;;;5056506;28;20230;-77
2022/01/07 15:53:47;;;;;;;4.03;1.77;;;4.20;99.90;;;;;;5038115;28;20180;-78
2022/01/07 15:56:13;;;;;;;4.03;1.63;;;4.20;99.90;;;;;;5056043;28;20261;-78
2022/01/07 15:58:38;;;;;;;4.63;2.00;;;4.20;99.90;;;;;;5056153;28;20175;-77
2022/01/07 16:01:04;;;;;;;4.00;1.83;;;4.10;99.90;;;;;;5037842;28;20580;-77
2022/01/07 16:03:30;;;;;;;3.17;1.80;;;4.10;99.90;;;;;;5058026;28;20175;-79
2022/01/07 16:05:56;;;;;;;3.67;2.13;;;4.10;99.90;;;;;;5058321;28;20606;-78
2022/01/07 16:08:24;;;;;;;3.63;2.00;;;4.10;99.90;;;;;;5057958;28;20207;-78
2022/01/07 16:10:50;;;;;;;7.00;2.27;;;4.10;99.90;;;;;;5058501;28;20544;-79
2022/01/07 16:13:16;;;;;;;2.50;1.83;;;4.10;99.90;;;;;;5040204;28;20211;-78
2022/01/07 16:15:44;;;;;;;4.87;2.90;;;4.10;99.90;;;;;;5039760;28;20681;-78
2022/01/07 16:18:10;;;;;;;5.50;3.20;;;4.10;99.90;;;;;;5039345;28;20187;-78
2022/01/07 16:20:36;;;;;;;4.63;2.20;;;4.00;99.90;;;;;;5056206;28;20549;-78
2022/01/07 16:23:01;;;;;;;3.60;2.00;;;4.00;99.90;;;;;;5055711;28;20184;-78
2022/01/07 16:25:27;;;;;;;5.33;2.70;;;4.00;99.90;;;;;;5036034;28;20708;-78
2022/01/07 16:27:53;;;;;;;5.13;2.10;;;4.00;99.90;;;;;;5055539;28;20202;-78
2022/01/07 16:30:18;;;;;;;3.17;1.97;;;4.00;99.90;;;;;;5037691;28;20184;-78
2022/01/07 16:32:44;;;;;;;6.47;3.60;;;4.00;99.90;;;;;;5037489;28;20180;-78
2022/01/07 16:35:12;;;;;;;3.73;2.00;;;4.10;99.90;;;;;;5055279;28;20257;-78
2022/01/07 16:37:38;;;;;;;4.93;2.40;;;4.10;99.90;;;;;;5055220;28;20202;-77
2022/01/07 16:40:07;;;;;;;3.57;2.00;;;4.10;99.90;;;;;;5055035;28;20234;-78
2022/01/07 16:42:33;;;;;;;3.63;1.90;;;4.10;99.90;;;;;;5055062;28;20179;-78
2022/01/07 16:44:58;;;;;;;5.83;2.50;;;4.10;99.90;;;;;;5054870;28;20204;-76
2022/01/07 16:47:26;;;;;;;4.13;2.50;;;4.20;99.90;;;;;;5054969;28;20537;-77
2022/01/07 16:49:52;;;;;;;3.17;1.93;;;4.20;99.90;;;;;;5037034;28;20184;-77
2022/01/07 16:52:18;;;;;;;3.40;2.37;;;4.20;99.90;;;;;;5054825;28;20172;-78
2022/01/07 16:54:43;;;;;;;5.27;2.17;;;4.20;99.90;;;;;;5054956;28;20195;-77
2022/01/07 16:57:09;;;;;;;4.03;2.13;;;4.20;99.90;;;;;;5054962;28;20219;-76
2022/01/07 16:59:34;;;;;;;5.00;2.20;;;4.20;99.90;;;;;;5054639;28;20265;-76
2022/01/07 17:02:01;;;;;;;4.47;2.37;;;4.20;99.90;;;;;;5036815;28;20203;-77
2022/01/07 17:04:26;;;;;;;3.40;1.97;;;4.20;99.90;;;;;;5036760;28;20203;-77
2022/01/07 17:06:52;;;;;;;3.60;2.00;;;4.20;99.90;;;;;;5054486;28;20172;-76
2022/01/07 17:09:18;;;;;;;5.60;2.00;;;4.20;99.90;;;;;;5054007;28;20411;-77
2022/01/07 17:11:44;;;;;;;2.93;1.93;;;4.20;99.90;;;;;;5054759;28;20180;-78
2022/01/07 17:14:10;;;;;;;3.40;1.80;;;4.30;99.90;;;;;;5055782;28;20176;-77
2022/01/07 17:16:36;;;;;;;4.10;1.63;;;4.30;99.90;;;;;;5036519;28;20190;-77
2022/01/07 17:19:02;;;;;;;3.13;1.50;;;4.30;99.90;;;;;;5036480;28;20236;-77
2022/01/07 17:21:30;;;;;;;2.60;1.77;;;4.30;99.90;;;;;;5054296;28;20176;-77
2022/01/07 17:23:56;;;;;;;4.07;1.90;;;4.30;99.90;;;;;;5036427;28;20187;-77
2022/01/07 17:26:22;;;;;;;3.20;1.70;;;4.40;99.90;;;;;;5053980;28;20694;-77
2022/01/07 17:28:48;;;;;;;4.93;2.00;;;4.40;99.90;;;;;;5054111;28;20187;-77
2022/01/07 17:31:13;;;;;;;6.30;1.90;;;4.40;99.90;;;;;;5054281;28;20168;-77
2022/01/07 17:33:39;;;;;;;2.57;1.50;;;4.40;99.90;;;;;;5054093;28;20547;-77
2022/01/07 17:36:04;;;;;;;2.87;1.70;;;4.40;99.90;;;;;;5053667;28;20520;-77
2022/01/07 17:38:30;;;;;;;2.63;1.50;;;4.40;99.90;;;;;;5036214;28;20180;-77
2022/01/07 17:40:55;;;;;;;3.90;1.77;;;4.40;99.90;;;;;;5055775;28;20235;-77
2022/01/07 17:43:22;;;;;;;3.50;1.40;;;4.40;99.90;;;;;;5058746;28;20180;-78
2022/01/07 17:45:52;;;;;;;3.97;1.67;;;4.40;99.90;;;;;;5060078;28;20192;-77
2022/01/07 17:48:18;;;;;;;3.60;1.80;;;4.40;99.90;;;;;;5041955;28;20262;-78
2022/01/07 17:50:43;;;;;;;4.40;1.70;;;4.40;99.90;;;;;;5055541;28;20210;-78
2022/01/07 17:53:09;;;;;;;3.70;1.97;;;4.30;99.90;;;;;;5036202;28;20183;-78
2022/01/07 17:55:35;;;;;;;5.00;2.20;;;4.40;99.90;;;;;;5054147;28;20196;-78
2022/01/07 17:58:00;;;;;;;4.70;2.47;;;4.30;99.90;;;;;;5053921;28;20184;-76
2022/01/07 18:00:27;;;;;;;4.00;2.10;;;4.30;99.90;;;;;;5035578;28;20218;-78
2022/01/07 18:02:53;;;;;;;3.83;1.87;;;4.20;99.90;;;;;;5053790;28;20222;-78
2022/01/07 18:05:19;;;;;;;4.63;2.07;;;4.20;99.90;;;;;;5035686;28;20195;-78
2022/01/07 18:07:45;;;;;;;3.07;2.00;;;4.30;99.90;;;;;;5037851;28;20567;-78
2022/01/07 18:10:12;;;;;;;2.10;1.70;;;4.20;99.90;;;;;;5035804;28;20185;-78
2022/01/07 18:12:38;;;;;;;2.93;1.67;;;4.20;99.90;;;;;;5053595;28;20176;-78
2022/01/07 18:15:05;;;;;;;4.70;2.33;;;4.30;99.90;;;;;;5053840;28;20214;-78
2022/01/07 18:17:31;;;;;;;3.43;1.90;;;4.20;99.90;;;;;;5035962;28;20551;-78
2022/01/07 18:19:56;;;;;;;2.80;1.70;;;4.30;99.90;;;;;;5053585;28;20199;-77
2022/01/07 18:22:23;;;;;;;2.23;1.60;;;4.20;99.90;;;;;;5035753;28;20180;-78
2022/01/07 18:24:49;;;;;;;2.63;1.67;;;4.20;99.90;;;;;;5035324;28;20219;-78
2022/01/07 18:27:15;;;;;;;3.73;1.60;;;4.30;99.90;;;;;;5053506;28;20550;-78
2022/01/07 18:29:40;;;;;;;6.30;2.10;;;4.20;99.90;;;;;;5035354;28;20290;-78
2022/01/07 18:32:06;;;;;;;5.70;2.47;;;4.20;99.90;;;;;;5053580;28;20175;-78
2022/01/07 18:34:32;;;;;;;3.33;1.70;;;4.20;99.90;;;;;;5060888;28;20286;-78
2022/01/07 18:36:58;;;;;;;3.47;1.40;;;4.20;99.90;;;;;;5037839;28;20219;-78
2022/01/07 18:39:23;;;;;;;6.37;1.40;;;4.10;99.90;;;;;;5054629;28;20199;-78
2022/01/07 18:41:50;;;;;;;2.27;1.30;;;4.10;99.90;;;;;;5055063;28;20175;-78
2022/01/07 18:44:15;;;;;;;2.47;1.20;;;4.10;99.90;;;;;;5037194;28;20207;-78
2022/01/07 18:46:41;;;;;;;2.57;1.27;;;4.10;99.90;;;;;;5037936;28;20178;-80
2022/01/07 18:49:09;;;;;;;2.30;1.33;;;4.00;99.90;;;;;;5039160;28;20191;-78
2022/01/07 18:51:35;;;;;;;2.30;1.20;;;4.00;99.90;;;;;;5058809;28;20318;-79
2022/01/07 18:54:01;;;;;;;2.07;1.40;;;4.00;99.90;;;;;;5058566;28;20518;-78
2022/01/07 18:56:27;;;;;;;1.90;1.60;;;4.00;99.90;;;;;;5057921;28;20210;-78
2022/01/07 18:58:53;;;;;;;2.57;1.50;;;3.90;99.90;;;;;;5056422;28;20680;-79
2022/01/07 19:01:19;;;;;;;3.23;1.73;;;3.90;99.90;;;;;;5056922;28;20258;-78
2022/01/07 19:03:45;;;;;;;2.00;1.50;;;3.80;99.90;;;;;;5036725;28;20649;-78
2022/01/07 19:06:11;;;;;;;3.23;1.63;;;3.80;99.90;;;;;;5054720;28;20596;-78
2022/01/07 19:08:40;;;;;;;3.10;1.67;;;3.80;99.90;;;;;;5053742;28;20597;-79
2022/01/07 19:11:06;;;;;;;2.50;1.90;;;3.80;99.90;;;;;;5053848;28;20195;-78